Callander, Canada
Current Conditions -  °F | °C
As of 11:00 AM on Saturday 25 Oct 2014 (Local Time) from CYYB Reporting Station
Light Rain Light Rain  
Wind Chill:   Ceiling: 200
Heat Index:   Visibility: 0.5mi
Dew Point:   Wind: 16mph
Humidity: 100%   Direction: 250°WSW
Pressure: 29.51"   Gusts: 23mph
Location:  46.22°N, 79.36°W
Report Text: CYYB 251500Z 25014G20KT 1/2SM -RA FG VV002 09/09 A2951 RMK FG8 SLP000
Loading
Personal Weather Stations






























Interactive Weather Map
Tropical Storm Tracking
New forecast layout! Learn more

10-Day Weather Forecast

Advertisements
Track Severe Weather on mobile